createdAt,value
2018-05-27T00:01:35.610Z,23.70
2018-05-27T00:04:04.647Z,23.80
2018-05-27T00:06:32.910Z,23.80
2018-05-27T00:09:01.164Z,23.80
2018-05-27T00:11:29.413Z,23.90
2018-05-27T00:13:57.712Z,24.00
2018-05-27T00:16:25.934Z,23.90
2018-05-27T00:18:54.205Z,23.90
2018-05-27T00:21:22.420Z,23.80
2018-05-27T00:23:51.452Z,23.70
2018-05-27T00:26:19.677Z,23.70
2018-05-27T00:28:47.941Z,23.60
2018-05-27T00:31:16.184Z,23.50
2018-05-27T00:33:44.568Z,23.50
2018-05-27T00:36:12.813Z,23.50
2018-05-27T00:38:41.059Z,23.40
2018-05-27T00:41:10.195Z,23.30
2018-05-27T00:43:38.443Z,23.30
2018-05-27T00:46:07.454Z,23.20
2018-05-27T00:48:35.720Z,23.20
2018-05-27T00:51:03.973Z,23.20
2018-05-27T00:53:44.035Z,23.10
2018-05-27T00:56:13.031Z,23.10
2018-05-27T00:58:41.287Z,23.10
2018-05-27T01:01:09.547Z,23.20
2018-05-27T01:03:37.797Z,23.30
2018-05-27T01:06:06.833Z,23.40
2018-05-27T01:08:35.876Z,23.40
2018-05-27T01:11:04.121Z,23.40
2018-05-27T01:13:33.138Z,23.40
2018-05-27T01:16:01.400Z,23.40
2018-05-27T01:18:29.690Z,23.30
2018-05-27T01:20:57.935Z,23.30
2018-05-27T01:23:26.947Z,23.20
2018-05-27T01:25:55.212Z,23.20
2018-05-27T01:28:23.459Z,23.10
2018-05-27T01:30:52.082Z,23.10
2018-05-27T01:33:20.330Z,23.00
2018-05-27T01:35:49.342Z,23.00
2018-05-27T01:38:17.598Z,23.00
2018-05-27T01:40:46.625Z,22.90
2018-05-27T01:43:14.888Z,22.90
2018-05-27T01:45:43.135Z,22.90
2018-05-27T01:48:12.290Z,22.90
2018-05-27T01:50:40.540Z,22.90
2018-05-27T01:53:08.796Z,22.90
2018-05-27T01:55:37.824Z,22.90
2018-05-27T01:58:06.081Z,22.90
2018-05-27T02:00:34.336Z,22.80
2018-05-27T02:03:02.579Z,22.90
2018-05-27T02:05:30.823Z,22.90
2018-05-27T02:07:59.139Z,22.80
2018-05-27T02:10:28.150Z,22.70
2018-05-27T02:12:57.168Z,22.70
2018-05-27T02:15:25.411Z,22.70
2018-05-27T02:17:54.437Z,22.80
2018-05-27T02:20:22.883Z,22.70
2018-05-27T02:22:51.903Z,22.70
2018-05-27T02:25:20.145Z,22.70
2018-05-27T02:27:49.305Z,22.80
2018-05-27T02:30:17.553Z,22.80
2018-05-27T02:32:45.800Z,22.80
2018-05-27T02:35:14.951Z,22.80
2018-05-27T02:37:43.199Z,22.80
2018-05-27T02:40:11.452Z,22.70
2018-05-27T02:42:40.607Z,22.70
2018-05-27T02:45:08.860Z,22.70
2018-05-27T02:47:37.238Z,22.60
2018-05-27T02:50:06.257Z,22.50
2018-05-27T02:52:34.500Z,22.50
2018-05-27T02:55:02.761Z,22.50
2018-05-27T02:57:30.995Z,22.50
2018-05-27T03:00:00.016Z,22.50
2018-05-27T03:02:28.262Z,22.50
2018-05-27T03:04:57.276Z,22.50
2018-05-27T03:07:25.528Z,22.50
2018-05-27T03:09:54.561Z,22.30
2018-05-27T03:12:22.799Z,22.40
2018-05-27T03:14:51.924Z,22.20
2018-05-27T03:17:20.166Z,22.20
2018-05-27T03:19:49.378Z,22.20
2018-05-27T03:22:17.631Z,22.20
2018-05-27T03:24:45.881Z,22.10
2018-05-27T03:27:14.327Z,22.10
2018-05-27T03:29:42.566Z,22.00
2018-05-27T03:32:11.583Z,22.00
2018-05-27T03:34:39.840Z,22.00
2018-05-27T03:37:08.872Z,22.00
2018-05-27T03:39:37.127Z,22.00
2018-05-27T03:42:05.376Z,22.00
2018-05-27T03:44:34.409Z,22.00
2018-05-27T03:47:02.659Z,22.00
2018-05-27T03:49:30.902Z,21.90
2018-05-27T03:51:59.188Z,21.90
2018-05-27T03:54:27.417Z,21.80
2018-05-27T03:56:55.664Z,21.80
2018-05-27T03:59:23.936Z,21.70
2018-05-27T04:01:52.948Z,21.70
2018-05-27T04:04:32.982Z,21.70
2018-05-27T04:07:13.155Z,21.70
2018-05-27T04:09:41.728Z,21.70
2018-05-27T04:12:09.971Z,21.70
2018-05-27T04:14:38.987Z,21.70
2018-05-27T04:17:07.239Z,21.70
2018-05-27T04:19:36.244Z,21.80
2018-05-27T04:22:05.260Z,21.70
2018-05-27T04:24:33.513Z,21.70
2018-05-27T04:27:02.524Z,21.60
2018-05-27T04:29:30.763Z,21.60
2018-05-27T04:31:59.845Z,21.50
2018-05-27T04:34:28.075Z,21.50
2018-05-27T04:36:56.330Z,21.50
2018-05-27T04:39:24.567Z,21.40
2018-05-27T04:41:52.824Z,21.50
2018-05-27T04:44:21.088Z,21.40
2018-05-27T04:46:49.341Z,21.50
2018-05-27T04:49:17.588Z,21.50
2018-05-27T04:51:46.611Z,21.60
2018-05-27T04:54:14.852Z,21.60
2018-05-27T04:56:43.876Z,21.80
2018-05-27T04:59:12.120Z,21.80
2018-05-27T05:01:41.127Z,22.00
2018-05-27T05:04:09.392Z,22.00
2018-05-27T05:06:38.398Z,22.10
2018-05-27T05:09:06.659Z,22.10
2018-05-27T05:11:35.671Z,22.20
2018-05-27T05:14:03.928Z,22.20
2018-05-27T05:16:32.929Z,22.10
2018-05-27T05:19:01.188Z,22.10
2018-05-27T05:21:30.193Z,22.20
2018-05-27T05:23:58.445Z,22.20
2018-05-27T05:26:26.709Z,22.20
2018-05-27T05:28:54.939Z,22.20
2018-05-27T05:31:23.208Z,22.30
2018-05-27T05:33:51.468Z,22.30
2018-05-27T05:36:19.723Z,22.30
2018-05-27T05:38:48.175Z,22.30
2018-05-27T05:41:16.433Z,22.40
2018-05-27T05:43:44.692Z,22.40
2018-05-27T05:46:12.936Z,22.50
2018-05-27T05:48:41.945Z,22.50
2018-05-27T05:51:10.210Z,22.50
2018-05-27T05:53:39.214Z,22.60
2018-05-27T05:56:07.476Z,22.60
2018-05-27T05:58:36.510Z,22.80
2018-05-27T06:01:04.751Z,22.70
2018-05-27T06:03:33.014Z,22.80
2018-05-27T06:06:02.029Z,22.80
2018-05-27T06:08:30.497Z,22.80
2018-05-27T06:10:59.515Z,22.90
2018-05-27T06:13:27.790Z,22.90
2018-05-27T06:15:56.036Z,23.00
2018-05-27T06:18:25.057Z,23.40
2018-05-27T06:20:53.450Z,23.40
2018-05-27T06:23:21.683Z,23.50
2018-05-27T06:25:49.968Z,23.40
2018-05-27T06:28:18.343Z,23.30
2018-05-27T06:30:46.605Z,23.40
2018-05-27T06:33:15.602Z,23.60
2018-05-27T06:35:43.864Z,23.60
2018-05-27T06:38:12.871Z,24.00
2018-05-27T06:40:41.123Z,24.00
2018-05-27T06:43:09.384Z,24.20
2018-05-27T06:45:37.623Z,24.40
2018-05-27T06:48:05.992Z,24.60
2018-05-27T06:50:34.252Z,24.70
2018-05-27T06:53:02.505Z,24.90
2018-05-27T06:55:31.831Z,25.30
2018-05-27T06:58:00.079Z,25.30
2018-05-27T07:00:29.091Z,25.60
2018-05-27T07:02:57.353Z,25.60
2018-05-27T07:05:26.375Z,26.10
2018-05-27T07:07:54.637Z,26.10
2018-05-27T07:10:22.883Z,26.20
2018-05-27T07:12:51.152Z,26.40
2018-05-27T07:15:19.392Z,26.40
2018-05-27T07:17:47.647Z,26.60
2018-05-27T07:20:15.891Z,26.60
2018-05-27T07:22:44.911Z,26.80
2018-05-27T07:25:13.151Z,26.70
2018-05-27T07:27:42.168Z,27.00
2018-05-27T07:30:10.432Z,26.90
2018-05-27T07:32:39.448Z,27.00
2018-05-27T07:35:07.690Z,27.00
2018-05-27T07:37:37.025Z,26.90
2018-05-27T07:40:05.269Z,26.90
2018-05-27T07:42:34.287Z,26.80
2018-05-27T07:45:02.555Z,26.80
2018-05-27T07:47:30.799Z,26.90
2018-05-27T07:49:59.810Z,26.70
2018-05-27T07:52:28.090Z,26.70
2018-05-27T07:54:57.136Z,26.80
2018-05-27T07:57:25.395Z,26.80
2018-05-27T07:59:53.648Z,26.90
2018-05-27T08:02:21.881Z,27.00
2018-05-27T08:04:50.944Z,27.00
2018-05-27T08:07:19.160Z,27.00
2018-05-27T08:09:48.164Z,27.00
2018-05-27T08:12:16.428Z,26.90
2018-05-27T08:14:45.450Z,26.90
2018-05-27T08:17:13.699Z,26.90
2018-05-27T08:19:42.734Z,26.80
2018-05-27T08:22:10.962Z,26.70
2018-05-27T08:24:39.998Z,26.80
2018-05-27T08:27:08.266Z,26.80
2018-05-27T08:29:36.537Z,26.80
2018-05-27T08:32:04.791Z,26.90
2018-05-27T08:34:33.072Z,26.90
2018-05-27T08:37:01.331Z,26.90
2018-05-27T08:39:30.356Z,26.80
2018-05-27T08:41:58.655Z,26.70
2018-05-27T08:44:26.900Z,26.80
2018-05-27T08:46:55.168Z,26.80
2018-05-27T08:49:23.429Z,26.80
2018-05-27T08:51:51.688Z,26.80
2018-05-27T08:54:19.939Z,26.80
2018-05-27T08:56:48.206Z,26.80
2018-05-27T08:59:17.232Z,26.80
2018-05-27T09:01:46.245Z,26.80
2018-05-27T09:04:15.272Z,26.70
2018-05-27T09:06:43.536Z,26.70
2018-05-27T09:09:12.565Z,26.50
2018-05-27T09:11:40.823Z,26.50
2018-05-27T09:14:09.070Z,26.60
2018-05-27T09:16:37.344Z,26.60
2018-05-27T09:19:05.590Z,26.70
2018-05-27T09:21:34.600Z,26.90
2018-05-27T09:24:03.196Z,26.90
2018-05-27T09:26:31.448Z,27.00
2018-05-27T09:29:00.461Z,27.20
2018-05-27T09:31:28.744Z,27.20
2018-05-27T09:33:57.038Z,27.30
2018-05-27T09:36:25.325Z,27.50
2018-05-27T09:38:53.558Z,27.70
2018-05-27T09:41:21.819Z,27.70
2018-05-27T09:43:50.064Z,27.80
2018-05-27T09:46:18.327Z,27.70
2018-05-27T09:48:46.595Z,27.70
2018-05-27T09:51:14.839Z,27.70
2018-05-27T09:53:43.083Z,27.80
2018-05-27T09:56:12.119Z,28.00
2018-05-27T09:58:40.358Z,28.00
2018-05-27T10:01:09.402Z,28.10
2018-05-27T10:03:37.637Z,28.10
2018-05-27T10:06:05.886Z,28.20
2018-05-27T10:08:34.132Z,28.20
2018-05-27T10:11:02.375Z,28.30
2018-05-27T10:13:30.920Z,28.40
2018-05-27T10:15:59.929Z,28.50
2018-05-27T10:18:28.183Z,28.50
2018-05-27T10:20:57.214Z,28.50
2018-05-27T10:23:25.452Z,28.50
2018-05-27T10:25:54.551Z,28.50
2018-05-27T10:28:22.735Z,28.50
2018-05-27T10:30:51.768Z,28.70
2018-05-27T10:33:20.059Z,28.70
2018-05-27T10:35:48.319Z,28.70
2018-05-27T10:38:16.574Z,28.90
2018-05-27T10:40:44.816Z,29.00
2018-05-27T10:43:13.870Z,29.20
2018-05-27T10:45:42.103Z,29.20
2018-05-27T10:48:10.368Z,29.20
2018-05-27T10:50:39.388Z,29.30
2018-05-27T10:53:07.643Z,29.30
2018-05-27T10:55:35.921Z,29.40
2018-05-27T10:58:04.945Z,29.60
2018-05-27T11:00:33.207Z,29.50
2018-05-27T11:03:01.493Z,29.40
2018-05-27T11:05:29.731Z,29.50
2018-05-27T11:07:58.758Z,29.90
2018-05-27T11:10:27.012Z,29.90
2018-05-27T11:12:56.049Z,29.90
2018-05-27T11:15:24.287Z,29.90
2018-05-27T11:17:52.552Z,29.90
2018-05-27T11:20:20.803Z,29.90
2018-05-27T11:22:49.814Z,30.00
2018-05-27T11:25:18.087Z,30.00
2018-05-27T11:27:46.413Z,30.10
2018-05-27T11:30:14.640Z,30.30
2018-05-27T11:32:42.908Z,30.40
2018-05-27T11:35:11.907Z,30.60
2018-05-27T11:37:40.171Z,30.60
2018-05-27T11:40:09.203Z,30.60
2018-05-27T11:42:37.467Z,30.60
2018-05-27T11:45:05.734Z,30.50
2018-05-27T11:47:33.972Z,30.60
2018-05-27T11:50:02.252Z,30.70
2018-05-27T11:52:30.555Z,30.90
2018-05-27T11:54:58.799Z,30.90
2018-05-27T11:57:27.063Z,31.20
2018-05-27T11:59:55.303Z,31.30
2018-05-27T12:02:23.563Z,31.30
2018-05-27T12:04:52.581Z,31.70
2018-05-27T12:07:20.825Z,31.70
2018-05-27T12:09:49.085Z,31.80
2018-05-27T12:12:18.126Z,31.90
2018-05-27T12:14:46.380Z,31.90
2018-05-27T12:17:14.646Z,31.90
2018-05-27T12:19:43.073Z,32.00
2018-05-27T12:22:11.329Z,32.00
2018-05-27T12:24:39.598Z,32.10
2018-05-27T12:27:07.877Z,31.90
2018-05-27T12:29:36.126Z,32.00
2018-05-27T12:32:04.397Z,32.10
2018-05-27T12:34:32.684Z,32.20
2018-05-27T12:37:00.948Z,32.20
2018-05-27T12:39:29.237Z,32.40
2018-05-27T12:41:57.510Z,32.40
2018-05-27T12:44:26.018Z,32.30
2018-05-27T12:46:55.450Z,32.20
2018-05-27T12:49:23.672Z,32.00
2018-05-27T12:51:52.000Z,32.10
2018-05-27T12:54:21.043Z,32.00
2018-05-27T12:56:49.300Z,32.00
2018-05-27T12:59:17.569Z,32.10
2018-05-27T13:01:45.895Z,32.00
2018-05-27T13:04:14.119Z,32.00
2018-05-27T13:06:42.387Z,32.10
2018-05-27T13:09:11.494Z,32.30
2018-05-27T13:11:39.743Z,32.20
2018-05-27T13:14:08.762Z,32.30
2018-05-27T13:16:37.088Z,32.30
2018-05-27T13:19:06.038Z,32.40
2018-05-27T13:21:34.306Z,32.40
2018-05-27T13:24:02.560Z,32.40
2018-05-27T13:26:31.570Z,32.50
2018-05-27T13:29:00.161Z,32.50
2018-05-27T13:31:28.416Z,32.50
2018-05-27T13:33:56.671Z,32.60
2018-05-27T13:36:25.896Z,32.40
2018-05-27T13:38:54.147Z,32.40
2018-05-27T13:41:23.151Z,32.00
2018-05-27T13:43:51.414Z,32.00
2018-05-27T13:46:20.435Z,31.60
2018-05-27T13:48:48.682Z,31.50
2018-05-27T13:51:17.974Z,31.60
2018-05-27T13:53:46.225Z,31.50
2018-05-27T13:56:15.272Z,31.50
2018-05-27T13:58:43.791Z,31.40
2018-05-27T14:01:12.063Z,31.30
2018-05-27T14:03:40.511Z,31.20
2018-05-27T14:06:08.869Z,31.10
2018-05-27T14:08:37.059Z,31.10
2018-05-27T14:11:05.320Z,31.20
2018-05-27T14:13:34.411Z,31.30
2018-05-27T14:16:03.582Z,31.20
2018-05-27T14:18:31.876Z,31.20
2018-05-27T14:21:00.939Z,31.20
2018-05-27T14:23:29.331Z,31.20
2018-05-27T14:25:57.644Z,31.30
2018-05-27T14:28:26.671Z,31.20
2018-05-27T14:30:55.067Z,31.10
2018-05-27T14:33:23.317Z,31.20
2018-05-27T14:35:51.572Z,31.20
2018-05-27T14:38:19.827Z,31.20
2018-05-27T14:40:48.107Z,31.20
2018-05-27T14:43:17.132Z,31.20
2018-05-27T14:45:45.404Z,31.20
2018-05-27T14:48:13.659Z,31.20
2018-05-27T14:50:41.912Z,31.20
2018-05-27T14:53:10.975Z,31.10
2018-05-27T14:55:39.220Z,31.10
2018-05-27T14:58:07.525Z,31.10
2018-05-27T15:00:35.743Z,31.20
2018-05-27T15:03:04.008Z,31.10
2018-05-27T15:05:33.041Z,31.10
2018-05-27T15:08:01.386Z,31.10
2018-05-27T15:10:30.433Z,31.00
2018-05-27T15:12:58.699Z,31.10
2018-05-27T15:15:26.962Z,31.00
2018-05-27T15:17:55.212Z,31.00
2018-05-27T15:20:23.706Z,31.00
2018-05-27T15:22:51.987Z,31.00
2018-05-27T15:25:20.240Z,31.10
2018-05-27T15:27:48.475Z,31.00
2018-05-27T15:30:16.729Z,31.00
2018-05-27T15:32:45.346Z,31.00
2018-05-27T15:35:14.791Z,30.20
2018-05-27T15:37:44.646Z,30.20
2018-05-27T15:40:12.915Z,29.90
2018-05-27T15:42:41.155Z,29.50
2018-05-27T15:45:09.417Z,29.20
2018-05-27T15:47:37.669Z,29.30
2018-05-27T15:50:06.704Z,29.40
2018-05-27T15:52:34.971Z,29.30
2018-05-27T15:55:03.523Z,29.40
2018-05-27T15:57:32.549Z,29.30
2018-05-27T16:00:00.911Z,29.30
2018-05-27T16:02:29.155Z,29.30
2018-05-27T16:04:57.397Z,29.30
2018-05-27T16:07:25.652Z,29.30
2018-05-27T16:09:53.939Z,29.20
2018-05-27T16:12:22.177Z,29.10
2018-05-27T16:14:50.452Z,29.20
2018-05-27T16:17:19.475Z,29.10
2018-05-27T16:19:47.728Z,29.00
2018-05-27T16:22:15.995Z,28.90
2018-05-27T16:24:45.036Z,28.60
2018-05-27T16:27:14.071Z,28.70
2018-05-27T16:29:43.092Z,28.70
2018-05-27T16:32:11.343Z,28.70
2018-05-27T16:34:40.409Z,28.60
2018-05-27T16:37:08.663Z,28.60
2018-05-27T16:39:36.944Z,28.60
2018-05-27T16:42:05.216Z,28.60
2018-05-27T16:44:34.232Z,28.40
2018-05-27T16:47:02.499Z,28.40
2018-05-27T16:49:30.767Z,28.30
2018-05-27T16:51:59.023Z,28.20
2018-05-27T16:54:27.282Z,28.10
2018-05-27T16:56:55.538Z,28.00
2018-05-27T16:59:23.817Z,28.00
2018-05-27T17:01:52.063Z,27.90
2018-05-27T17:04:21.101Z,28.00
2018-05-27T17:06:49.623Z,28.00
2018-05-27T17:09:17.877Z,28.00
2018-05-27T17:11:46.140Z,28.00
2018-05-27T17:14:14.434Z,28.10
2018-05-27T17:16:42.696Z,28.00
2018-05-27T17:19:10.967Z,28.00
2018-05-27T17:21:39.286Z,28.00
2018-05-27T17:24:07.545Z,28.00
2018-05-27T17:26:35.849Z,28.00
2018-05-27T17:29:06.295Z,28.00
2018-05-27T17:31:34.558Z,28.10
2018-05-27T17:34:03.597Z,28.10
2018-05-27T17:36:31.843Z,28.10
2018-05-27T17:39:00.092Z,28.10
2018-05-27T17:41:29.142Z,28.30
2018-05-27T17:43:57.396Z,28.30
2018-05-27T17:46:25.635Z,28.20
2018-05-27T17:48:54.647Z,28.20
2018-05-27T17:51:22.895Z,28.20
2018-05-27T17:53:52.529Z,28.30
2018-05-27T17:56:20.772Z,28.20
2018-05-27T17:58:49.810Z,28.20
2018-05-27T18:01:18.061Z,28.10
2018-05-27T18:03:47.313Z,28.20
2018-05-27T18:06:15.536Z,28.10
2018-05-27T18:08:43.939Z,28.20
2018-05-27T18:11:12.226Z,28.20
2018-05-27T18:13:40.473Z,28.20
2018-05-27T18:16:08.753Z,28.20
2018-05-27T18:18:37.007Z,28.20
2018-05-27T18:21:06.052Z,27.90
2018-05-27T18:23:35.065Z,27.80
2018-05-27T18:26:03.338Z,27.80
2018-05-27T18:28:31.577Z,27.80
2018-05-27T18:31:00.007Z,27.60
2018-05-27T18:33:28.250Z,27.70
2018-05-27T18:35:57.264Z,27.50
2018-05-27T18:38:25.560Z,27.50
2018-05-27T18:40:54.554Z,27.40
2018-05-27T18:43:22.809Z,27.30
2018-05-27T18:45:51.079Z,27.40
2018-05-27T18:48:19.353Z,27.40
2018-05-27T18:50:47.603Z,27.10
2018-05-27T18:53:15.873Z,26.90
2018-05-27T18:55:44.127Z,26.90
2018-05-27T18:58:12.835Z,26.80
2018-05-27T19:00:41.360Z,26.80
2018-05-27T19:03:10.390Z,26.90
2018-05-27T19:05:38.654Z,26.90
2018-05-27T19:08:06.927Z,26.80
2018-05-27T19:10:35.182Z,26.80
2018-05-27T19:13:04.280Z,26.80
2018-05-27T19:15:32.511Z,26.80
2018-05-27T19:18:01.517Z,26.80
2018-05-27T19:20:29.849Z,26.80
2018-05-27T19:22:58.096Z,26.70
2018-05-27T19:25:27.153Z,26.50
2018-05-27T19:27:56.184Z,26.40
2018-05-27T19:30:24.413Z,26.30
2018-05-27T19:32:52.687Z,26.10
2018-05-27T19:35:21.725Z,26.20
2018-05-27T19:37:50.740Z,26.30
2018-05-27T19:40:19.007Z,26.20
2018-05-27T19:42:47.608Z,26.30
2018-05-27T19:45:15.865Z,26.40
2018-05-27T19:47:44.120Z,26.40
2018-05-27T19:50:13.222Z,26.40
2018-05-27T19:52:42.255Z,26.40
2018-05-27T19:55:10.488Z,26.40
2018-05-27T19:57:39.517Z,26.50
2018-05-27T20:00:07.793Z,26.50
2018-05-27T20:02:36.333Z,26.50
2018-05-27T20:05:05.370Z,26.30
2018-05-27T20:07:33.603Z,26.30
2018-05-27T20:10:02.694Z,26.30
2018-05-27T20:12:31.725Z,26.30
2018-05-27T20:15:00.306Z,26.30
2018-05-27T20:17:29.297Z,26.20
2018-05-27T20:19:57.557Z,26.20
2018-05-27T20:22:25.837Z,26.20
2018-05-27T20:24:54.094Z,26.10
2018-05-27T20:27:23.262Z,26.20
2018-05-27T20:29:51.513Z,26.20
2018-05-27T20:32:19.778Z,26.20
2018-05-27T20:34:48.312Z,26.30
2018-05-27T20:37:17.371Z,26.10
2018-05-27T20:39:45.637Z,26.10
2018-05-27T20:42:13.898Z,26.10
2018-05-27T20:44:42.162Z,26.10
2018-05-27T20:47:10.723Z,26.20
2018-05-27T20:49:39.731Z,25.70
2018-05-27T20:52:07.976Z,25.70
2018-05-27T20:54:37.014Z,25.60
2018-05-27T20:57:06.251Z,25.60
2018-05-27T20:59:34.510Z,25.50
2018-05-27T21:02:02.768Z,25.60
2018-05-27T21:04:31.039Z,25.70
2018-05-27T21:06:59.297Z,25.70
2018-05-27T21:09:27.543Z,25.60
2018-05-27T21:11:56.563Z,25.50
2018-05-27T21:14:24.828Z,25.50
2018-05-27T21:16:53.231Z,25.60
2018-05-27T21:19:21.485Z,25.70
2018-05-27T21:21:49.734Z,25.80
2018-05-27T21:24:18.772Z,25.90
2018-05-27T21:26:47.019Z,25.90
2018-05-27T21:29:15.279Z,25.90
2018-05-27T21:31:44.292Z,26.00
2018-05-27T21:34:12.546Z,26.00
2018-05-27T21:36:41.579Z,25.80
2018-05-27T21:39:09.842Z,25.80
2018-05-27T21:41:38.131Z,25.70
2018-05-27T21:44:06.360Z,25.60
2018-05-27T21:46:35.398Z,25.40
2018-05-27T21:49:03.799Z,25.40
2018-05-27T21:51:32.063Z,25.50
2018-05-27T21:54:00.331Z,25.60
2018-05-27T21:56:28.591Z,25.60
2018-05-27T21:58:56.854Z,25.60
2018-05-27T22:01:25.142Z,25.60
2018-05-27T22:03:53.391Z,25.50
2018-05-27T22:06:22.316Z,25.40
2018-05-27T22:08:50.585Z,25.20
2018-05-27T22:11:18.844Z,25.20
2018-05-27T22:13:47.243Z,25.30
2018-05-27T22:16:15.493Z,25.30
2018-05-27T22:18:43.756Z,25.40
2018-05-27T22:21:12.835Z,25.50
2018-05-27T22:23:41.459Z,25.50
2018-05-27T22:26:09.720Z,25.60
2018-05-27T22:28:37.971Z,25.40
2018-05-27T22:31:07.147Z,25.10
2018-05-27T22:33:35.396Z,25.10
2018-05-27T22:36:03.655Z,24.90
2018-05-27T22:38:31.915Z,24.80
2018-05-27T22:41:00.199Z,24.80
2018-05-27T22:43:28.452Z,24.90
2018-05-27T22:45:57.483Z,24.90
2018-05-27T22:48:25.764Z,24.90
2018-05-27T22:50:54.003Z,25.00
2018-05-27T22:53:23.010Z,25.10
2018-05-27T22:55:51.432Z,25.10
2018-05-27T22:58:19.685Z,25.10
2018-05-27T23:00:47.933Z,25.10
2018-05-27T23:03:16.958Z,24.40
2018-05-27T23:05:45.203Z,24.40
2018-05-27T23:08:13.452Z,24.30
2018-05-27T23:10:42.485Z,24.40
2018-05-27T23:13:10.738Z,24.40
2018-05-27T23:15:39.048Z,24.30
2018-05-27T23:18:07.460Z,24.10
2018-05-27T23:20:35.703Z,24.00
2018-05-27T23:23:03.951Z,23.80
2018-05-27T23:25:32.214Z,23.80
2018-05-27T23:28:00.486Z,23.70
2018-05-27T23:30:28.754Z,23.60
2018-05-27T23:32:57.759Z,23.40
2018-05-27T23:35:26.011Z,23.30
2018-05-27T23:37:55.144Z,23.20
2018-05-27T23:40:23.387Z,23.20
2018-05-27T23:42:52.420Z,23.20
2018-05-27T23:45:20.965Z,23.20
2018-05-27T23:47:49.979Z,23.40
2018-05-27T23:50:19.391Z,23.40
2018-05-27T23:52:47.951Z,23.40
2018-05-27T23:55:16.190Z,23.20
2018-05-27T23:57:44.463Z,23.10
